• Join FlightAware (Why Join?)
  • Login
  • US Flag 
08:23AM EDT


 

Airport Tracker/Info


-or-


 

Live Flight TrackerFlight Track Log ✈ N606FT ✈ 06-Sep-2013 ✈ X61 - KFMY

Flight Track Log - Related Links

Times and Time Zones

All times are in EDT time to prevent confusion due to time zone crossing. See the N606FT flight status page for this flight to view local times or setup timezone preferences in your user account.

Time Position Orientation Groundspeed Altitude Reporting Facility
EDT Latitude Longitude Course Direction KTS MPH feet Rate Location/Type
11:28AM 28.2833 -80.8333 184° South 96 110 2,500  Level Orlando TRACON
11:29AM 28.2667 -80.8500 221° Southwest 96 110 2,600  Climbing Orlando TRACON
11:30AM 28.2500 -80.8833 240° Southwest 98 113 2,500 -60 Descending Orlando TRACON
11:31AM 28.2333 -80.9000 221° Southwest 95 109 2,500  Level Orlando TRACON
11:32AM 28.2167 -80.9333 240° Southwest 95 109 2,500 60 Level Orlando TRACON
11:33AM 28.5661 -81.6436 184° South  Level FlightAware Approximate
11:33AM 28.2000 -80.9500 221° Southwest 91 105 2,700  Level Orlando TRACON
11:34AM 28.1833 -80.9667 221° Southwest 111 128 2,500 -120 Descending Orlando TRACON
11:35AM 28.1500 -80.9833 204° Southwest 96 110 2,500  Level Orlando TRACON
11:36AM 28.1333 -81.0167 240° Southwest 96 110 2,500  Level Orlando TRACON
11:37AM 28.1167 -81.0333 221° Southwest 97 112 2,500  Level Orlando TRACON
11:38AM 28.1000 -81.0500 221° Southwest 98 113 2,500  Level Orlando TRACON
11:39AM 28.0833 -81.0833 240° Southwest 100 115 2,500  Level Orlando TRACON
11:40AM 28.0667 -81.1000 221° Southwest 100 115 2,500  Level Orlando TRACON
11:41AM 28.0500 -81.1167 221° Southwest 99 114 2,500  Level Orlando TRACON
11:42AM 28.0219 -81.1419 218° Southwest 96 110 2,500  Level Miami Center
11:43AM 27.9983 -81.1622 217° Southwest 96 110 2,600  Climbing Miami Center
11:44AM 27.9769 -81.1803 217° Southwest 102 117 2,500 -60 Descending Miami Center
11:45AM 27.9594 -81.2056 232° Southwest 107 123 2,500  Level Miami Center
11:46AM 27.9778 -81.2228 320° Northwest 68 78 2,500  Level Miami Center
11:47AM 28.0031 -81.2072 29° Northeast 60 69 2,500  Level Miami Center
11:48AM 27.9844 -81.2017 165° South 22 25 2,500  Level Miami Center
11:49AM 27.9631 -81.2222 220° Southwest 54 62 2,500  Level Miami Center
11:50AM 27.9356 -81.2375 206° Southwest 93 107 2,500  Level Miami Center
11:51AM 27.9119 -81.2531 210° Southwest 105 121 2,500  Level Miami Center
11:52AM 27.8906 -81.2758 223° Southwest 105 121 2,500 -60 Level Miami Center
11:53AM 27.8711 -81.2961 223° Southwest 105 121 2,400  Descending Miami Center
11:54AM 27.8494 -81.3186 223° Southwest 105 121 2,500  Climbing Miami Center
11:55AM 27.8300 -81.3392 223° Southwest 105 121 2,500  Level Miami Center
11:56AM 27.8086 -81.3594 220° Southwest 105 121 2,500  Level Miami Center
11:57AM 27.7892 -81.3819 226° Southwest 105 121 2,500  Level Miami Center
11:58AM 27.7717 -81.4047 229° Southwest 105 121 2,500  Level Miami Center
11:59AM 27.7503 -81.4250 220° Southwest 105 121 2,500  Level Miami Center
12:00PM 27.7286 -81.4431 216° Southwest 105 121 2,500  Level Miami Center
12:01PM 27.7053 -81.4583 210° Southwest 100 115 2,500 -60 Level Miami Center
12:02PM 27.6858 -81.4811 226° Southwest 100 115 2,400 -60 Descending Miami Center
12:03PM 27.6664 -81.5036 226° Southwest 100 115 2,400 60 Level Miami Center
12:04PM 27.6489 -81.5264 229° Southwest 100 115 2,600 60 Climbing Miami Center
12:05PM 27.6314 -81.5517 232° Southwest 100 115 2,600 -60 Level Miami Center
12:06PM 27.6136 -81.5789 234° Southwest 105 121 2,500 -60 Descending Miami Center
12:07PM 27.5942 -81.6017 226° Southwest 105 121 2,500  Level Miami Center
12:08PM 27.5747 -81.6217 222° Southwest 110 127 2,500  Level Miami Center
12:09PM 27.5531 -81.6444 223° Southwest 110 127 2,500  Level Miami Center
12:10PM 27.5317 -81.6669 223° Southwest 110 127 2,500  Level Miami Center
12:11PM 27.5139 -81.6919 231° Southwest 110 127 2,500 -60 Level Miami Center
12:12PM 27.4925 -81.7097 216° Southwest 105 121 2,400  Descending Miami Center
12:13PM 27.4672 -81.7203 200° South 100 115 2,500 60 Climbing Miami Center
12:14PM 27.4400 -81.7239 187° South 95 109 2,600  Climbing Miami Center
12:15PM 27.4106 -81.7272 186° South 101 116 2,500 -60 Descending Miami Center
12:16PM 27.3853 -81.7356 196° South 101 116 2,500  Level Miami Center
12:17PM 27.3578 -81.7436 195° South 106 122 2,500  Level Miami Center
12:18PM 27.3347 -81.7497 193° South 106 122 2,500  Level Miami Center
12:19PM 27.3008 -81.7600 195° South 106 122 2,600 -60 Climbing Miami Center
12:20PM 27.2714 -81.7681 194° South 106 122 2,400 -60 Descending Miami Center
12:21PM 27.2461 -81.7764 196° South 100 115 2,500  Climbing Miami Center
12:22PM 27.2144 -81.7867 196° South 100 115 2,500  Level Miami Center
12:23PM 27.1889 -81.7997 204° Southwest 100 115 2,500  Level Miami Center
12:24PM 27.1636 -81.8078 196° South 100 115 2,500  Level Miami Center
12:25PM 27.1364 -81.8136 191° South 100 115 2,500 -120 Level Miami Center
12:26PM 27.1092 -81.8172 187° South 100 115 2,300  Descending Miami Center
12:27PM 27.0839 -81.8231 192° South 100 115 2,500 60 Climbing Miami Center
12:28PM 27.0564 -81.8267 187° South 106 122 2,500 -60 Level Miami Center
12:29PM 27.0292 -81.8325 191° South 106 122 2,400  Descending Miami Center
12:30PM 27.0039 -81.8383 192° South 106 122 2,500 60 Climbing Miami Center